createdAt,value
2023-05-10T00:00:31.584Z,42.60
2023-05-10T00:05:32.974Z,42.50
2023-05-10T00:10:34.359Z,42.60
2023-05-10T00:15:35.734Z,42.50
2023-05-10T00:20:37.127Z,42.50
2023-05-10T00:25:38.529Z,42.50
2023-05-10T00:30:39.952Z,42.60
2023-05-10T00:35:41.339Z,42.50
2023-05-10T00:40:42.746Z,42.50
2023-05-10T00:45:44.196Z,42.50
2023-05-10T00:50:45.617Z,42.50
2023-05-10T00:55:46.997Z,42.60
2023-05-10T01:00:48.413Z,42.60
2023-05-10T01:05:49.814Z,42.50
2023-05-10T01:10:51.214Z,42.50
2023-05-10T01:15:52.696Z,42.60
2023-05-10T01:20:54.151Z,42.60
2023-05-10T01:25:55.590Z,42.50
2023-05-10T01:30:57.046Z,42.50
2023-05-10T01:35:58.487Z,42.50
2023-05-10T01:40:59.878Z,42.50
2023-05-10T01:46:01.296Z,42.50
2023-05-10T01:51:02.700Z,42.40
2023-05-10T01:56:04.102Z,42.40
2023-05-10T02:01:05.515Z,42.50
2023-05-10T02:06:06.939Z,42.40
2023-05-10T02:11:08.338Z,42.40
2023-05-10T02:16:09.816Z,42.40
2023-05-10T02:21:11.256Z,42.40
2023-05-10T02:26:12.657Z,42.30
2023-05-10T02:31:14.060Z,42.40
2023-05-10T02:36:15.464Z,42.40
2023-05-10T02:41:16.858Z,42.30
2023-05-10T02:46:18.278Z,42.30
2023-05-10T02:51:19.667Z,42.30
2023-05-10T02:56:21.074Z,42.30
2023-05-10T03:01:22.480Z,42.30
2023-05-10T03:06:23.934Z,42.30
2023-05-10T03:11:25.329Z,42.30
2023-05-10T03:16:26.868Z,42.30
2023-05-10T03:21:28.353Z,42.30
2023-05-10T03:26:29.756Z,42.30
2023-05-10T03:31:31.161Z,42.30
2023-05-10T03:36:32.963Z,42.30
2023-05-10T03:41:34.347Z,42.30
2023-05-10T03:46:35.779Z,42.20
2023-05-10T03:51:37.225Z,42.30
2023-05-10T03:56:38.618Z,42.20
2023-05-10T04:01:40.052Z,42.30
2023-05-10T04:06:42.378Z,42.30
2023-05-10T04:11:43.812Z,42.20
2023-05-10T04:16:45.244Z,42.20
2023-05-10T04:21:46.676Z,42.20
2023-05-10T04:26:48.094Z,42.20
2023-05-10T04:31:49.507Z,42.30
2023-05-10T04:36:50.917Z,42.20
2023-05-10T04:41:52.322Z,42.10
2023-05-10T04:46:53.727Z,42.10
2023-05-10T04:51:55.114Z,42.20
2023-05-10T04:56:56.523Z,42.30
2023-05-10T05:01:58.019Z,42.20
2023-05-10T05:06:59.426Z,42.20
2023-05-10T05:12:00.811Z,42.20
2023-05-10T05:17:02.203Z,42.20
2023-05-10T05:22:03.596Z,42.20
2023-05-10T05:27:04.990Z,42.20
2023-05-10T05:32:06.452Z,42.20
2023-05-10T05:37:08.039Z,42.20
2023-05-10T05:42:09.449Z,42.20
2023-05-10T05:47:10.848Z,42.20
2023-05-10T05:52:12.240Z,42.20
2023-05-10T05:57:13.637Z,42.20
2023-05-10T06:02:15.067Z,42.20
2023-05-10T06:07:16.469Z,42.20
2023-05-10T06:12:17.890Z,42.20
2023-05-10T06:17:19.329Z,42.20
2023-05-10T06:22:20.730Z,42.80
2023-05-10T06:27:22.135Z,42.10
2023-05-10T06:32:23.800Z,42.20
2023-05-10T06:37:25.309Z,42.20
2023-05-10T06:42:26.713Z,42.20
2023-05-10T06:47:28.180Z,42.20
2023-05-10T06:52:29.621Z,42.20
2023-05-10T06:57:32.208Z,42.10
2023-05-10T07:02:33.914Z,42.10
2023-05-10T07:07:35.364Z,42.20
2023-05-10T07:12:36.818Z,42.20
2023-05-10T07:17:38.281Z,42.10
2023-05-10T07:22:39.725Z,42.10
2023-05-10T07:27:41.160Z,42.20
2023-05-10T07:32:42.671Z,42.10
2023-05-10T07:37:44.063Z,42.20
2023-05-10T07:42:45.463Z,42.10
2023-05-10T07:47:46.882Z,42.10
2023-05-10T07:52:49.332Z,42.10
2023-05-10T07:57:50.746Z,42.10
2023-05-10T08:02:52.560Z,42.10
2023-05-10T08:07:53.972Z,42.00
2023-05-10T08:12:55.387Z,42.10
2023-05-10T08:17:56.812Z,42.10
2023-05-10T08:22:58.248Z,42.10
2023-05-10T08:27:59.654Z,42.10
2023-05-10T08:33:01.130Z,42.10
2023-05-10T08:38:02.629Z,42.10
2023-05-10T08:43:04.043Z,42.10
2023-05-10T08:48:05.487Z,42.00
2023-05-10T08:53:06.922Z,42.10
2023-05-10T08:58:08.355Z,42.10
2023-05-10T09:03:09.801Z,42.10
2023-05-10T09:08:11.234Z,42.10
2023-05-10T09:13:12.651Z,42.10
2023-05-10T09:18:14.106Z,42.00
2023-05-10T09:23:15.560Z,42.10
2023-05-10T09:28:16.978Z,42.10
2023-05-10T09:33:18.409Z,42.10
2023-05-10T09:38:19.818Z,42.10
2023-05-10T09:43:21.225Z,42.10
2023-05-10T09:48:22.626Z,42.00
2023-05-10T09:53:24.278Z,42.00
2023-05-10T09:58:25.768Z,42.00
2023-05-10T10:03:29.709Z,42.00
2023-05-10T10:08:31.692Z,41.90
2023-05-10T10:13:33.202Z,41.90
2023-05-10T10:18:34.667Z,42.00
2023-05-10T10:23:36.087Z,41.90
2023-05-10T10:28:37.526Z,42.00
2023-05-10T10:33:38.969Z,42.00
2023-05-10T10:38:40.380Z,41.80
2023-05-10T10:43:41.762Z,42.00
2023-05-10T10:48:43.155Z,41.90
2023-05-10T10:53:44.569Z,41.80
2023-05-10T10:58:46.004Z,41.80
2023-05-10T11:03:47.449Z,41.80
2023-05-10T11:08:48.885Z,41.80
2023-05-10T11:13:51.480Z,41.80
2023-05-10T11:18:53.399Z,41.80
2023-05-10T11:23:54.846Z,41.80
2023-05-10T11:28:56.240Z,41.80
2023-05-10T11:33:57.689Z,41.90
2023-05-10T11:38:59.120Z,41.90
2023-05-10T11:44:00.558Z,42.00
2023-05-10T11:49:01.992Z,42.00
2023-05-10T11:54:03.383Z,42.00
2023-05-10T11:59:04.803Z,42.10
2023-05-10T12:04:06.411Z,42.20
2023-05-10T12:09:07.925Z,42.50
2023-05-10T12:14:09.323Z,42.70
2023-05-10T12:19:10.840Z,43.30
2023-05-10T12:24:12.432Z,43.00
2023-05-10T12:29:13.850Z,42.80
2023-05-10T12:34:15.300Z,42.60
2023-05-10T12:39:16.715Z,42.80
2023-05-10T12:44:18.112Z,42.80
2023-05-10T12:49:19.549Z,42.70
2023-05-10T12:54:20.963Z,42.50
2023-05-10T12:59:22.368Z,42.60
2023-05-10T13:04:23.830Z,42.50
2023-05-10T13:09:25.254Z,42.40
2023-05-10T13:14:26.706Z,42.30
2023-05-10T13:19:28.089Z,42.20
2023-05-10T13:24:29.492Z,41.80
2023-05-10T13:29:30.912Z,41.60
2023-05-10T13:34:32.313Z,41.80
2023-05-10T13:39:33.720Z,42.00
2023-05-10T13:44:35.113Z,42.10
2023-05-10T13:49:36.532Z,42.00
2023-05-10T13:54:37.928Z,42.00
2023-05-10T13:59:39.373Z,41.90
2023-05-10T14:04:40.767Z,41.80
2023-05-10T14:09:42.178Z,41.90
2023-05-10T14:14:43.578Z,41.80
2023-05-10T14:19:44.976Z,41.70
2023-05-10T14:24:46.379Z,41.70
2023-05-10T14:29:47.778Z,41.60
2023-05-10T14:34:49.191Z,41.50
2023-05-10T14:39:50.628Z,41.50
2023-05-10T14:44:52.024Z,41.30
2023-05-10T14:49:53.414Z,40.70
2023-05-10T14:54:54.832Z,40.40
2023-05-10T14:59:56.221Z,40.60
2023-05-10T15:04:58.173Z,41.10
2023-05-10T15:09:59.843Z,41.30
2023-05-10T15:15:01.291Z,41.50
2023-05-10T15:20:02.737Z,42.00
2023-05-10T15:25:04.183Z,42.10
2023-05-10T15:30:08.625Z,42.00
2023-05-10T15:35:10.022Z,42.20
2023-05-10T15:40:12.902Z,42.10
2023-05-10T15:45:14.939Z,41.80
2023-05-10T15:50:16.619Z,40.60
2023-05-10T15:55:18.318Z,40.70
2023-05-10T16:00:19.982Z,40.80
2023-05-10T16:05:21.389Z,40.80
2023-05-10T16:10:22.789Z,40.80
2023-05-10T16:15:24.173Z,40.90
2023-05-10T16:20:25.564Z,41.00
2023-05-10T16:25:27.031Z,41.00
2023-05-10T16:30:28.415Z,41.00
2023-05-10T16:35:29.796Z,41.20
2023-05-10T16:40:31.192Z,41.00
2023-05-10T16:45:32.610Z,41.20
2023-05-10T16:50:34.015Z,41.00
2023-05-10T16:55:35.467Z,41.10
2023-05-10T17:00:36.863Z,41.10
2023-05-10T17:05:38.296Z,41.50
2023-05-10T17:10:39.751Z,41.30
2023-05-10T17:15:41.294Z,41.60
2023-05-10T17:20:42.748Z,41.70
2023-05-10T17:25:44.163Z,42.20
2023-05-10T17:30:45.568Z,42.30
2023-05-10T17:35:46.967Z,42.70
2023-05-10T17:40:48.372Z,42.60
2023-05-10T17:45:49.826Z,42.90
2023-05-10T17:50:51.317Z,42.80
2023-05-10T17:55:52.972Z,43.00
2023-05-10T18:00:54.425Z,43.00
2023-05-10T18:05:55.893Z,43.20
2023-05-10T18:10:57.316Z,43.40
2023-05-10T18:15:58.713Z,43.50
2023-05-10T18:21:00.120Z,43.80
2023-05-10T18:26:01.570Z,44.00
2023-05-10T18:31:02.974Z,44.10
2023-05-10T18:36:04.395Z,44.10
2023-05-10T18:41:05.797Z,44.20
2023-05-10T18:46:07.233Z,44.30
2023-05-10T18:51:08.660Z,44.10
2023-05-10T18:56:10.043Z,44.00
2023-05-10T19:01:11.486Z,43.80
2023-05-10T19:06:12.964Z,43.80
2023-05-10T19:11:14.362Z,43.80
2023-05-10T19:16:15.910Z,43.80
2023-05-10T19:21:18.138Z,43.80
2023-05-10T19:26:19.644Z,43.60
2023-05-10T19:31:21.286Z,43.70
2023-05-10T19:36:23.022Z,43.50
2023-05-10T19:41:24.480Z,43.80
2023-05-10T19:46:26.072Z,43.90
2023-05-10T19:51:27.510Z,43.90
2023-05-10T19:56:28.925Z,43.90
2023-05-10T20:01:30.669Z,43.80
2023-05-10T20:06:32.164Z,43.80
2023-05-10T20:11:33.558Z,43.80
2023-05-10T20:16:34.990Z,43.80
2023-05-10T20:21:36.413Z,43.80
2023-05-10T20:26:37.817Z,43.80
2023-05-10T20:31:39.229Z,43.80
2023-05-10T20:36:40.662Z,43.70
2023-05-10T20:41:42.059Z,43.80
2023-05-10T20:46:43.451Z,43.60
2023-05-10T20:51:44.840Z,44.00
2023-05-10T20:56:46.247Z,44.30
2023-05-10T21:01:47.672Z,44.20
2023-05-10T21:06:49.113Z,44.30
2023-05-10T21:11:50.495Z,44.20
2023-05-10T21:16:51.896Z,44.20
2023-05-10T21:21:54.269Z,43.90
2023-05-10T21:26:55.742Z,44.10
2023-05-10T21:31:57.207Z,44.20
2023-05-10T21:36:58.724Z,44.40
2023-05-10T21:42:00.182Z,44.40
2023-05-10T21:47:01.640Z,44.40
2023-05-10T21:52:03.097Z,44.40
2023-05-10T21:57:04.478Z,44.40
2023-05-10T22:02:05.908Z,44.50
2023-05-10T22:07:07.347Z,44.40
2023-05-10T22:12:08.852Z,44.40
2023-05-10T22:17:10.371Z,44.40
2023-05-10T22:22:11.933Z,44.40
2023-05-10T22:27:13.376Z,44.40
2023-05-10T22:32:14.775Z,44.30
2023-05-10T22:37:16.172Z,44.30
2023-05-10T22:42:17.560Z,44.30
2023-05-10T22:47:18.953Z,44.20
2023-05-10T22:52:20.382Z,43.40
2023-05-10T22:57:21.804Z,43.10
2023-05-10T23:02:23.213Z,43.10
2023-05-10T23:07:24.639Z,43.10
2023-05-10T23:12:26.059Z,43.20
2023-05-10T23:17:27.524Z,43.10
2023-05-10T23:22:28.970Z,43.20
2023-05-10T23:27:30.369Z,43.20
2023-05-10T23:32:31.800Z,43.20
2023-05-10T23:37:33.234Z,43.80
2023-05-10T23:42:34.626Z,43.20
2023-05-10T23:47:36.059Z,43.20
2023-05-10T23:52:37.474Z,43.10
2023-05-10T23:57:38.863Z,43.20
